createdAt,value
2018-09-08T06:06:19.069Z,12.90
2018-09-08T06:08:46.558Z,13.20
2018-09-08T06:11:14.078Z,13.10
2018-09-08T06:13:41.783Z,13.00
2018-09-08T06:16:09.261Z,12.80
2018-09-08T06:18:36.798Z,12.80
2018-09-08T06:21:04.387Z,12.80
2018-09-08T06:23:31.913Z,12.80
2018-09-08T06:25:59.528Z,12.70
2018-09-08T06:28:27.118Z,12.70
2018-09-08T06:30:54.550Z,12.60
2018-09-08T06:33:22.066Z,12.60
2018-09-08T06:35:49.575Z,12.60
2018-09-08T06:38:17.115Z,12.50
2018-09-08T06:40:44.626Z,12.60
2018-09-08T06:43:12.158Z,12.70
2018-09-08T06:45:39.890Z,12.70
2018-09-08T06:48:07.393Z,12.80
2018-09-08T06:50:34.918Z,12.70
2018-09-08T06:53:02.510Z,12.90
2018-09-08T06:55:30.006Z,12.90
2018-09-08T06:57:58.086Z,13.00
2018-09-08T07:00:25.548Z,13.10
2018-09-08T07:02:53.033Z,13.20
2018-09-08T07:05:20.574Z,13.30
2018-09-08T07:07:48.072Z,13.40
2018-09-08T07:10:15.561Z,13.40
2018-09-08T07:12:43.104Z,13.50
2018-09-08T07:15:10.712Z,13.50
2018-09-08T07:17:38.273Z,13.60
2018-09-08T07:20:06.132Z,13.70
2018-09-08T07:22:33.610Z,13.70
2018-09-08T07:25:01.146Z,13.80
2018-09-08T07:27:28.675Z,13.90
2018-09-08T07:29:56.192Z,14.00
2018-09-08T07:32:23.684Z,14.30
2018-09-08T07:34:51.262Z,14.50
2018-09-08T07:37:18.759Z,14.50
2018-09-08T07:39:46.262Z,14.70
2018-09-08T07:42:13.806Z,14.80
2018-09-08T07:44:41.323Z,14.80
2018-09-08T07:47:08.841Z,15.00
2018-09-08T07:49:36.405Z,15.30
2018-09-08T07:52:03.942Z,15.50
2018-09-08T07:54:31.457Z,15.60
2018-09-08T07:56:59.098Z,15.60
2018-09-08T07:59:26.687Z,15.60
2018-09-08T08:01:54.204Z,15.70
2018-09-08T08:04:21.740Z,15.90
2018-09-08T08:06:49.297Z,16.00
2018-09-08T08:09:16.752Z,16.00
2018-09-08T08:11:44.399Z,16.20
2018-09-08T08:14:11.920Z,16.30
2018-09-08T08:16:39.418Z,16.40
2018-09-08T08:19:06.968Z,16.40
2018-09-08T08:21:34.490Z,16.30
2018-09-08T08:24:01.982Z,16.50
2018-09-08T08:26:29.494Z,16.50
2018-09-08T08:28:57.032Z,16.60
2018-09-08T08:31:24.512Z,16.70
2018-09-08T08:33:52.120Z,16.60
2018-09-08T08:36:19.711Z,16.70
2018-09-08T08:38:47.237Z,16.90
2018-09-08T08:41:14.756Z,17.00
2018-09-08T08:43:42.242Z,17.10
2018-09-08T08:46:09.736Z,17.20
2018-09-08T08:48:37.263Z,17.40
2018-09-08T08:51:16.051Z,17.50
2018-09-08T08:53:54.902Z,17.40
2018-09-08T08:56:22.425Z,17.40
2018-09-08T08:58:50.282Z,17.30
2018-09-08T09:01:17.802Z,17.30
2018-09-08T09:03:45.320Z,17.40
2018-09-08T09:06:12.842Z,17.50
2018-09-08T09:08:40.757Z,17.50
2018-09-08T09:11:07.887Z,17.60
2018-09-08T09:13:35.542Z,17.60
2018-09-08T09:16:03.001Z,17.70
2018-09-08T09:18:42.119Z,17.90
2018-09-08T09:21:20.796Z,18.10
2018-09-08T09:25:04.970Z,18.10
2018-09-08T09:27:33.970Z,18.20
2018-09-08T09:30:01.836Z,18.20
2018-09-08T09:32:29.377Z,18.10
2018-09-08T09:34:56.900Z,18.10
2018-09-08T09:37:24.515Z,18.30
2018-09-08T09:39:52.810Z,18.30
2018-09-08T09:42:20.313Z,18.40
2018-09-08T09:44:47.842Z,18.60
2018-09-08T09:47:15.368Z,18.80
2018-09-08T09:49:42.872Z,19.00
2018-09-08T09:52:10.424Z,19.30
2018-09-08T09:54:37.906Z,19.60
2018-09-08T09:57:05.440Z,19.60
2018-09-08T09:59:33.060Z,19.40
2018-09-08T10:02:03.306Z,19.30
2018-09-08T10:04:30.932Z,19.10
2018-09-08T10:06:58.472Z,19.20
2018-09-08T10:09:26.005Z,19.60
2018-09-08T10:11:53.594Z,19.80
2018-09-08T10:14:21.082Z,19.90
2018-09-08T10:16:48.698Z,19.80
2018-09-08T10:19:16.242Z,19.70
2018-09-08T10:21:44.438Z,19.80
2018-09-08T10:24:12.291Z,20.10
2018-09-08T10:26:39.877Z,20.10
2018-09-08T10:29:07.410Z,19.80
2018-09-08T10:31:34.954Z,19.80
2018-09-08T10:34:02.455Z,19.80
2018-09-08T10:36:29.992Z,19.80
2018-09-08T10:38:57.501Z,19.60
2018-09-08T10:41:25.081Z,19.60
2018-09-08T10:43:52.676Z,19.70
2018-09-08T10:46:20.219Z,19.70
2018-09-08T10:48:47.835Z,19.90
2018-09-08T10:52:28.217Z,20.00
2018-09-08T10:54:55.839Z,20.00
2018-09-08T10:57:23.491Z,20.10
2018-09-08T10:59:50.981Z,20.00
2018-09-08T11:02:18.794Z,19.90
2018-09-08T11:04:46.067Z,20.00
2018-09-08T11:07:13.565Z,20.10
2018-09-08T11:09:41.101Z,20.30
2018-09-08T11:12:09.014Z,20.10
2018-09-08T11:14:36.536Z,20.20
2018-09-08T11:17:04.083Z,20.40
2018-09-08T11:19:31.645Z,20.50
2018-09-08T11:21:59.159Z,20.80
2018-09-08T11:24:26.691Z,20.60
2018-09-08T11:26:54.453Z,20.50
2018-09-08T11:29:22.041Z,20.30
2018-09-08T11:31:49.568Z,20.20
2018-09-08T11:34:17.066Z,20.20
2018-09-08T11:36:45.270Z,20.40
2018-09-08T11:39:12.764Z,20.60
2018-09-08T11:41:40.270Z,20.70
2018-09-08T11:44:07.785Z,20.80
2018-09-08T11:46:35.292Z,21.10
2018-09-08T11:49:02.842Z,21.40
2018-09-08T11:51:30.508Z,21.60
2018-09-08T11:53:58.030Z,22.00
2018-09-08T11:56:25.586Z,22.40
2018-09-08T11:58:53.128Z,22.80
2018-09-08T12:01:20.701Z,23.00
2018-09-08T12:03:48.195Z,23.00
2018-09-08T12:06:15.724Z,23.00
2018-09-08T12:08:43.218Z,22.80
2018-09-08T12:11:10.723Z,22.80
2018-09-08T12:13:38.250Z,23.00
2018-09-08T12:16:05.874Z,23.10
2018-09-08T12:18:33.419Z,23.00
2018-09-08T12:21:00.962Z,23.20
2018-09-08T12:23:28.487Z,23.10
2018-09-08T12:25:56.022Z,23.10
2018-09-08T12:28:23.558Z,22.90
2018-09-08T12:30:51.189Z,22.90
2018-09-08T12:33:18.656Z,23.00
2018-09-08T12:35:46.156Z,22.90
2018-09-08T12:38:13.660Z,23.00
2018-09-08T12:40:41.180Z,23.00
2018-09-08T12:43:08.694Z,23.00
2018-09-08T12:45:36.202Z,23.30
2018-09-08T12:48:03.783Z,23.30
2018-09-08T12:50:31.344Z,23.10
2018-09-08T12:52:58.876Z,23.00
2018-09-08T12:55:26.474Z,22.80
2018-09-08T12:57:54.063Z,22.80
2018-09-08T13:00:21.598Z,22.80
2018-09-08T13:02:49.142Z,22.60
2018-09-08T13:05:16.642Z,22.70
2018-09-08T13:07:44.279Z,22.70
2018-09-08T13:10:11.746Z,22.80
2018-09-08T13:12:39.238Z,23.10
2018-09-08T13:15:06.858Z,23.10
2018-09-08T13:17:34.500Z,23.30
2018-09-08T13:20:02.061Z,23.50
2018-09-08T13:22:29.548Z,23.40
2018-09-08T13:24:57.303Z,23.50
2018-09-08T13:27:26.238Z,23.50
2018-09-08T13:29:53.813Z,23.20
2018-09-08T13:32:21.369Z,23.10
2018-09-08T13:34:49.013Z,22.90
2018-09-08T13:37:16.556Z,22.70
2018-09-08T13:39:44.195Z,22.60
2018-09-08T13:42:11.685Z,22.40
2018-09-08T13:44:39.263Z,22.20
2018-09-08T13:47:06.878Z,21.90
2018-09-08T13:49:34.352Z,21.80
2018-09-08T13:52:02.030Z,21.60
2018-09-08T13:54:29.538Z,21.50
2018-09-08T13:56:57.139Z,21.50
2018-09-08T13:59:24.631Z,21.60
2018-09-08T14:01:52.159Z,21.70
2018-09-08T14:04:19.735Z,21.90
2018-09-08T14:06:47.198Z,22.20
2018-09-08T14:09:14.796Z,22.50
2018-09-08T14:11:42.332Z,23.00
2018-09-08T14:14:09.923Z,23.40
2018-09-08T14:16:37.470Z,23.40
2018-09-08T14:19:05.297Z,23.40
2018-09-08T14:21:32.823Z,23.60
2018-09-08T14:24:00.341Z,23.60
2018-09-08T14:26:27.810Z,23.70
2018-09-08T14:28:55.347Z,23.70
2018-09-08T14:31:22.998Z,23.50
2018-09-08T14:33:50.495Z,23.50
2018-09-08T14:36:17.995Z,23.50
2018-09-08T14:38:45.518Z,23.40
2018-09-08T14:41:13.027Z,23.20
2018-09-08T14:43:40.537Z,23.00
2018-09-08T14:46:08.072Z,23.00
2018-09-08T14:48:35.585Z,23.10
2018-09-08T14:51:03.140Z,23.10
2018-09-08T14:53:30.680Z,23.00
2018-09-08T14:55:58.182Z,23.00
2018-09-08T14:58:25.675Z,22.90
2018-09-08T15:00:53.190Z,22.90
2018-09-08T15:03:20.660Z,22.70
2018-09-08T15:05:48.154Z,22.60
2018-09-08T15:08:15.697Z,22.50
2018-09-08T15:10:43.313Z,22.60
2018-09-08T15:13:10.843Z,22.50
2018-09-08T15:15:38.518Z,22.30
2018-09-08T15:18:06.041Z,22.20
2018-09-08T15:20:33.642Z,22.10
2018-09-08T15:23:01.191Z,22.00
2018-09-08T15:25:28.703Z,22.00
2018-09-08T15:27:56.218Z,21.90
2018-09-08T15:30:23.754Z,21.80
2018-09-08T15:32:51.296Z,21.80
2018-09-08T15:35:18.809Z,21.80
2018-09-08T15:37:46.701Z,21.60
2018-09-08T15:40:14.262Z,21.70
2018-09-08T15:42:41.853Z,21.80
2018-09-08T15:45:09.525Z,21.80
2018-09-08T15:47:37.072Z,22.00
2018-09-08T15:50:04.871Z,21.90
2018-09-08T15:52:32.401Z,21.70
2018-09-08T15:54:59.911Z,21.70
2018-09-08T15:57:27.588Z,21.60
2018-09-08T15:59:55.125Z,21.60
2018-09-08T16:02:22.615Z,21.60
2018-09-08T16:04:50.139Z,21.50
2018-09-08T16:07:17.671Z,21.60
2018-09-08T16:09:45.201Z,21.60
2018-09-08T16:12:12.679Z,21.50
2018-09-08T16:14:40.209Z,21.50
2018-09-08T16:17:08.077Z,21.40
2018-09-08T16:19:35.593Z,21.50
2018-09-08T16:22:03.161Z,21.50
2018-09-08T16:24:30.694Z,21.40
2018-09-08T16:26:58.227Z,21.20
2018-09-08T16:29:25.801Z,21.10
2018-09-08T16:31:53.328Z,21.00
2018-09-08T16:34:20.826Z,21.00
2018-09-08T16:36:48.339Z,21.00
2018-09-08T16:39:15.907Z,20.90
2018-09-08T16:41:43.412Z,20.90
2018-09-08T16:44:11.021Z,20.80
2018-09-08T16:46:38.504Z,20.70
2018-09-08T16:49:06.093Z,20.70
2018-09-08T16:51:33.653Z,20.70
2018-09-08T16:54:01.182Z,20.60
2018-09-08T16:56:28.717Z,20.60
2018-09-08T16:58:56.241Z,20.50
2018-09-08T17:01:23.942Z,20.50
2018-09-08T17:03:51.466Z,20.40
2018-09-08T17:06:19.116Z,20.40
2018-09-08T17:08:46.611Z,20.20
2018-09-08T17:11:14.107Z,20.30
2018-09-08T17:13:41.633Z,20.30
2018-09-08T17:16:09.160Z,20.40
2018-09-08T17:18:36.731Z,20.30
2018-09-08T17:21:04.304Z,20.30
2018-09-08T17:23:31.798Z,20.40
2018-09-08T17:25:59.360Z,20.50
2018-09-08T17:28:27.023Z,20.50
2018-09-08T17:30:54.546Z,20.60
2018-09-08T17:33:22.048Z,20.50
2018-09-08T17:35:49.631Z,20.50
2018-09-08T17:38:17.174Z,20.40
2018-09-08T17:40:44.848Z,20.40
2018-09-08T17:43:12.399Z,20.30
2018-09-08T17:45:39.927Z,20.20
2018-09-08T17:48:07.504Z,20.00
2018-09-08T17:50:35.026Z,19.90
2018-09-08T17:53:02.555Z,19.70
2018-09-08T17:55:30.380Z,19.70
2018-09-08T17:57:57.991Z,19.60
2018-09-08T18:00:25.510Z,19.60
2018-09-08T18:02:53.093Z,19.50
2018-09-08T18:05:20.635Z,19.50
2018-09-08T18:07:48.188Z,19.40
2018-09-08T18:10:15.714Z,19.40
2018-09-08T18:12:43.366Z,19.40
2018-09-08T18:15:10.928Z,19.30
2018-09-08T18:17:38.448Z,19.30
2018-09-08T18:20:06.166Z,19.30
2018-09-08T18:22:34.332Z,19.20
2018-09-08T18:25:01.882Z,19.20
2018-09-08T18:27:29.585Z,19.20
2018-09-08T18:29:57.128Z,19.10
2018-09-08T18:32:24.704Z,19.10
2018-09-08T18:34:52.230Z,19.10
2018-09-08T18:37:19.805Z,19.00
2018-09-08T18:39:47.391Z,19.00
2018-09-08T18:42:14.932Z,18.90
2018-09-08T18:44:42.515Z,18.90
2018-09-08T18:49:44.209Z,18.70
2018-09-08T18:52:11.858Z,18.70
2018-09-08T18:54:39.437Z,18.70
2018-09-08T18:57:07.290Z,18.70
2018-09-08T18:59:34.796Z,18.70
2018-09-08T19:02:02.360Z,18.60
2018-09-08T19:04:29.885Z,18.60
2018-09-08T19:06:57.502Z,18.60
2018-09-08T19:09:25.025Z,18.60
2018-09-08T19:11:52.559Z,18.60
2018-09-08T19:14:25.814Z,18.50
2018-09-08T19:16:53.347Z,18.50
2018-09-08T19:19:20.878Z,18.50
2018-09-08T19:21:48.410Z,18.40
2018-09-08T19:24:21.446Z,18.40
2018-09-08T19:26:48.951Z,18.40
2018-09-08T19:29:22.214Z,18.40
2018-09-08T19:31:49.866Z,18.30
2018-09-08T19:34:17.509Z,18.20
2018-09-08T19:36:45.094Z,18.20
2018-09-08T19:39:12.709Z,18.10
2018-09-08T19:41:40.510Z,18.10
2018-09-08T19:44:08.027Z,18.10
2018-09-08T19:46:41.169Z,18.20
2018-09-08T19:49:08.757Z,18.20
2018-09-08T19:51:36.332Z,18.10
2018-09-08T19:54:03.951Z,18.10
2018-09-08T19:56:37.123Z,18.00
2018-09-08T19:59:04.762Z,18.00
2018-09-08T20:01:32.477Z,18.00
2018-09-08T20:04:00.255Z,18.00
2018-09-08T20:06:27.798Z,18.00
2018-09-08T20:08:55.455Z,18.00
2018-09-08T20:11:23.067Z,18.00
2018-09-08T20:13:50.652Z,17.90
2018-09-08T20:16:18.241Z,17.90
2018-09-08T20:18:45.935Z,17.90
2018-09-08T20:21:13.430Z,17.90
2018-09-08T20:23:40.983Z,17.90
2018-09-08T20:26:08.545Z,17.90
2018-09-08T20:28:36.053Z,17.80
2018-09-08T20:31:03.598Z,17.80
2018-09-08T20:33:31.698Z,17.80
2018-09-08T20:35:59.473Z,17.80
2018-09-08T20:38:27.059Z,17.80
2018-09-08T20:40:54.715Z,17.80
2018-09-08T20:43:22.385Z,17.80
2018-09-08T20:45:49.959Z,17.80
2018-09-08T20:48:17.857Z,17.80
2018-09-08T20:50:45.443Z,17.80
2018-09-08T20:53:13.119Z,17.80
2018-09-08T20:55:40.691Z,17.80
2018-09-08T20:58:08.252Z,17.80
2018-09-08T21:00:35.764Z,17.70
2018-09-08T21:03:03.355Z,17.70
2018-09-08T21:05:30.960Z,17.70
2018-09-08T21:07:58.508Z,17.70
2018-09-08T21:10:26.051Z,17.60
2018-09-08T21:12:53.552Z,17.50
2018-09-08T21:15:21.068Z,17.50
2018-09-08T21:17:48.635Z,17.30
2018-09-08T21:20:16.143Z,17.20
2018-09-08T21:22:43.636Z,17.20
2018-09-08T21:25:11.152Z,17.20
2018-09-08T21:27:38.685Z,17.30
2018-09-08T21:30:06.248Z,17.20
2018-09-08T21:32:33.786Z,17.20
2018-09-08T21:35:01.317Z,17.10
2018-09-08T21:37:28.865Z,17.10
2018-09-08T21:39:56.415Z,17.00
2018-09-08T21:42:23.945Z,17.00
2018-09-08T21:44:51.463Z,16.90
2018-09-08T21:47:18.987Z,16.90
2018-09-08T21:49:46.515Z,16.80
2018-09-08T21:52:14.103Z,16.80
2018-09-08T21:54:41.645Z,16.80
2018-09-08T21:57:09.130Z,16.80
2018-09-08T21:59:36.647Z,16.80
2018-09-08T22:02:04.197Z,16.80
2018-09-08T22:04:31.699Z,16.80
2018-09-08T22:06:59.231Z,16.80
2018-09-08T22:09:26.777Z,16.70
2018-09-08T22:11:54.312Z,16.60
2018-09-08T22:14:21.875Z,16.50
2018-09-08T22:16:49.409Z,16.40
2018-09-08T22:19:17.017Z,16.30
2018-09-08T22:21:44.521Z,16.30
2018-09-08T22:24:12.066Z,16.30
2018-09-08T22:26:39.607Z,16.30
2018-09-08T22:29:07.131Z,16.40
2018-09-08T22:31:34.651Z,16.40
2018-09-08T22:34:02.161Z,16.40
2018-09-08T22:36:29.682Z,16.50
2018-09-08T22:38:57.271Z,16.60
2018-09-08T22:41:24.715Z,16.60
2018-09-08T22:43:53.391Z,16.60
2018-09-08T22:46:20.924Z,16.60
2018-09-08T22:48:48.446Z,16.60
2018-09-08T22:51:16.052Z,16.60
2018-09-08T22:53:43.533Z,16.60
2018-09-08T22:56:11.067Z,16.70
2018-09-08T22:58:38.663Z,16.70
2018-09-08T23:01:06.185Z,16.70
2018-09-08T23:03:33.665Z,16.70
2018-09-08T23:06:01.219Z,16.70
2018-09-08T23:08:28.938Z,16.80
2018-09-08T23:10:56.443Z,16.70
2018-09-08T23:13:23.965Z,16.70
2018-09-08T23:15:51.518Z,16.70
2018-09-08T23:18:19.071Z,16.70
2018-09-08T23:20:46.612Z,16.70
2018-09-08T23:23:14.126Z,16.80
2018-09-08T23:25:41.630Z,16.80
2018-09-08T23:28:09.192Z,16.80
2018-09-08T23:30:36.679Z,16.70
2018-09-08T23:33:04.209Z,16.70
2018-09-08T23:35:31.768Z,16.70
2018-09-08T23:37:59.253Z,16.70
2018-09-08T23:40:26.750Z,16.60
2018-09-08T23:42:54.278Z,16.60
2018-09-08T23:45:21.783Z,16.60
2018-09-08T23:47:49.280Z,16.60
2018-09-08T23:50:16.851Z,16.60
2018-09-08T23:52:44.340Z,16.60
2018-09-08T23:55:11.842Z,16.60
2018-09-08T23:57:39.402Z,16.70
